createdAt,value
2023-04-09T00:00:17.736Z,27.73
2023-04-09T00:02:44.905Z,29.20
2023-04-09T00:05:11.994Z,28.30
2023-04-09T00:07:38.749Z,28.73
2023-04-09T00:10:06.208Z,28.00
2023-04-09T00:12:32.990Z,27.23
2023-04-09T00:14:59.756Z,26.60
2023-04-09T00:17:26.696Z,27.13
2023-04-09T00:19:53.439Z,26.90
2023-04-09T00:22:20.298Z,27.50
2023-04-09T00:24:47.048Z,25.80
2023-04-09T00:27:13.943Z,25.60
2023-04-09T00:29:41.098Z,24.40
2023-04-09T00:32:07.938Z,22.93
2023-04-09T00:34:34.898Z,23.73
2023-04-09T00:37:01.591Z,23.90
2023-04-09T00:39:28.574Z,22.83
2023-04-09T00:41:59.382Z,22.03
2023-04-09T00:44:26.278Z,22.80
2023-04-09T00:46:54.402Z,22.93
2023-04-09T00:49:21.855Z,22.27
2023-04-09T00:51:48.841Z,22.60
2023-04-09T00:54:16.285Z,22.23
2023-04-09T00:56:43.941Z,22.93
2023-04-09T00:59:11.077Z,22.57
2023-04-09T01:01:37.957Z,21.70
2023-04-09T01:04:05.419Z,22.07
2023-04-09T01:06:45.682Z,22.83
2023-04-09T01:09:23.945Z,22.63
2023-04-09T01:12:12.218Z,21.57
2023-04-09T01:14:51.020Z,21.73
2023-04-09T01:17:31.353Z,21.37
2023-04-09T01:20:08.976Z,21.53
2023-04-09T01:23:03.958Z,21.47
2023-04-09T01:25:48.924Z,20.63
2023-04-09T01:28:43.389Z,21.13
2023-04-09T01:31:17.414Z,21.40
2023-04-09T01:33:45.646Z,21.67
2023-04-09T01:36:13.455Z,21.77
2023-04-09T01:38:42.607Z,21.80
2023-04-09T01:41:15.113Z,21.70
2023-04-09T01:43:43.248Z,19.57
2023-04-09T01:46:10.948Z,20.43
2023-04-09T01:48:38.096Z,21.30
2023-04-09T01:51:05.389Z,21.03
2023-04-09T01:53:32.335Z,22.10
2023-04-09T01:56:03.646Z,19.53
2023-04-09T01:58:30.515Z,19.97
2023-04-09T02:01:05.514Z,19.20
2023-04-09T02:03:39.301Z,20.80
2023-04-09T02:06:24.804Z,19.20
2023-04-09T02:08:53.750Z,19.93
2023-04-09T02:11:23.599Z,18.77
2023-04-09T02:13:55.434Z,19.80
2023-04-09T02:16:23.026Z,19.60
2023-04-09T02:18:54.932Z,19.30
2023-04-09T02:21:23.406Z,18.90
2023-04-09T02:23:50.898Z,20.40
2023-04-09T02:26:17.651Z,20.00
2023-04-09T02:28:44.351Z,21.00
2023-04-09T02:31:11.524Z,19.50
2023-04-09T02:33:38.412Z,20.77
2023-04-09T02:36:06.177Z,19.47
2023-04-09T02:38:32.981Z,20.10
2023-04-09T02:40:59.728Z,19.70
2023-04-09T02:43:26.484Z,18.93
2023-04-09T02:45:53.321Z,19.27
2023-04-09T02:48:19.965Z,18.67
2023-04-09T02:50:46.663Z,19.33
2023-04-09T02:53:13.510Z,20.10
2023-04-09T02:55:40.925Z,18.57
2023-04-09T02:58:07.744Z,18.80
2023-04-09T03:00:34.563Z,19.57
2023-04-09T03:03:01.608Z,19.03
2023-04-09T03:05:28.531Z,17.83
2023-04-09T03:07:56.113Z,18.27
2023-04-09T03:10:22.893Z,18.17
2023-04-09T03:12:49.719Z,17.47
2023-04-09T03:15:16.813Z,16.53
2023-04-09T03:17:43.526Z,17.53
2023-04-09T03:20:10.516Z,17.80
2023-04-09T03:22:38.160Z,17.00
2023-04-09T03:25:05.689Z,18.33
2023-04-09T03:27:33.298Z,16.70
2023-04-09T03:30:00.130Z,17.50
2023-04-09T03:32:27.117Z,16.60
2023-04-09T03:34:53.842Z,17.33
2023-04-09T03:37:20.641Z,16.30
2023-04-09T03:39:47.353Z,16.93
2023-04-09T03:42:14.020Z,16.77
2023-04-09T03:44:40.860Z,17.63
2023-04-09T03:47:07.769Z,18.20
2023-04-09T03:49:37.745Z,17.73
2023-04-09T03:52:04.515Z,17.70
2023-04-09T03:54:32.104Z,17.90
2023-04-09T03:56:58.956Z,18.40
2023-04-09T03:59:25.611Z,17.30
2023-04-09T04:01:52.415Z,17.93
2023-04-09T04:04:21.932Z,18.63
2023-04-09T04:06:50.338Z,16.70
2023-04-09T04:09:17.137Z,17.00
2023-04-09T04:11:43.862Z,18.37
2023-04-09T04:14:10.696Z,16.60
2023-04-09T04:16:37.517Z,16.37
2023-04-09T04:19:04.215Z,17.37
2023-04-09T04:21:31.447Z,16.40
2023-04-09T04:23:58.259Z,17.17
2023-04-09T04:26:25.351Z,16.63
2023-04-09T04:28:52.901Z,16.43
2023-04-09T04:31:19.761Z,15.67
2023-04-09T04:33:46.537Z,16.90
2023-04-09T04:36:14.261Z,16.60
2023-04-09T04:38:41.977Z,17.20
2023-04-09T04:41:08.833Z,17.00
2023-04-09T04:43:35.629Z,15.30
2023-04-09T04:46:02.629Z,16.27
2023-04-09T04:48:30.877Z,16.10
2023-04-09T04:50:59.242Z,14.90
2023-04-09T04:53:26.260Z,15.40
2023-04-09T04:55:53.214Z,15.43
2023-04-09T04:58:20.040Z,15.33
2023-04-09T05:00:46.825Z,15.30
2023-04-09T05:03:14.101Z,16.07
2023-04-09T05:05:41.112Z,15.27
2023-04-09T05:08:08.072Z,16.20
2023-04-09T05:10:34.792Z,14.60
2023-04-09T05:13:01.558Z,14.00
2023-04-09T05:15:28.323Z,14.77
2023-04-09T05:17:55.100Z,15.03
2023-04-09T05:20:22.092Z,14.60
2023-04-09T05:22:48.773Z,15.77
2023-04-09T05:25:16.501Z,15.13
2023-04-09T05:27:43.509Z,13.37
2023-04-09T05:30:10.791Z,13.73
2023-04-09T05:32:38.319Z,14.03
2023-04-09T05:35:05.649Z,15.07
2023-04-09T05:37:32.384Z,14.20
2023-04-09T05:39:59.149Z,14.33
2023-04-09T05:42:25.888Z,13.93
2023-04-09T05:44:52.592Z,13.97
2023-04-09T05:47:19.299Z,13.73
2023-04-09T05:49:46.642Z,14.37
2023-04-09T05:52:13.493Z,12.87
2023-04-09T05:54:40.157Z,12.67
2023-04-09T05:57:06.876Z,12.57
2023-04-09T05:59:33.990Z,12.07
2023-04-09T06:02:00.749Z,12.73
2023-04-09T06:04:27.996Z,11.97
2023-04-09T06:06:55.712Z,13.80
2023-04-09T06:09:22.520Z,13.87
2023-04-09T06:11:49.198Z,13.07
2023-04-09T06:14:18.240Z,12.90
2023-04-09T06:16:45.869Z,12.80
2023-04-09T06:19:12.614Z,12.10
2023-04-09T06:21:40.677Z,13.30
2023-04-09T06:24:07.511Z,12.90
2023-04-09T06:26:34.334Z,12.70
2023-04-09T06:29:01.170Z,12.50
2023-04-09T06:31:27.962Z,12.70
2023-04-09T06:33:55.125Z,11.33
2023-04-09T06:36:22.224Z,12.90
2023-04-09T06:38:49.112Z,11.70
2023-04-09T06:41:16.188Z,13.03
2023-04-09T06:43:42.929Z,13.23
2023-04-09T06:46:09.651Z,12.53
2023-04-09T06:48:36.762Z,12.20
2023-04-09T06:51:03.806Z,13.47
2023-04-09T06:53:30.797Z,11.30
2023-04-09T06:55:57.561Z,12.37
2023-04-09T06:58:24.352Z,12.07
2023-04-09T07:00:51.104Z,13.30
2023-04-09T07:03:18.142Z,12.03
2023-04-09T07:05:45.066Z,11.60
2023-04-09T07:08:12.520Z,10.90
2023-04-09T07:10:39.264Z,11.83
2023-04-09T07:13:06.623Z,11.20
2023-04-09T07:15:33.353Z,10.93
2023-04-09T07:18:00.629Z,10.57
2023-04-09T07:20:27.756Z,9.97
2023-04-09T07:22:54.858Z,11.10
2023-04-09T07:25:21.788Z,9.40
2023-04-09T07:27:49.774Z,10.10
2023-04-09T07:30:16.561Z,9.20
2023-04-09T07:32:43.624Z,10.27
2023-04-09T07:35:11.799Z,9.93
2023-04-09T07:37:38.729Z,10.17
2023-04-09T07:40:06.110Z,9.73
2023-04-09T07:42:33.214Z,9.17
2023-04-09T07:45:00.748Z,10.80
2023-04-09T07:47:28.598Z,9.20
2023-04-09T07:49:55.328Z,8.80
2023-04-09T07:52:22.161Z,8.73
2023-04-09T07:54:49.132Z,9.20
2023-04-09T07:57:15.960Z,9.10
2023-04-09T07:59:43.043Z,9.87
2023-04-09T08:02:11.581Z,9.83
2023-04-09T08:04:39.705Z,10.43
2023-04-09T08:07:06.529Z,8.90
2023-04-09T08:09:33.282Z,8.60
2023-04-09T08:12:01.150Z,9.47
2023-04-09T08:14:28.054Z,9.20
2023-04-09T08:16:54.909Z,8.57
2023-04-09T08:19:21.713Z,8.50
2023-04-09T08:21:51.333Z,8.00
2023-04-09T08:24:18.784Z,8.57
2023-04-09T08:26:45.703Z,7.57
2023-04-09T08:29:13.700Z,7.43
2023-04-09T08:31:42.075Z,7.50
2023-04-09T08:34:09.343Z,7.03
2023-04-09T08:36:36.257Z,7.30
2023-04-09T08:39:03.730Z,7.77
2023-04-09T08:41:30.932Z,7.33
2023-04-09T08:43:59.957Z,8.00
2023-04-09T08:46:27.709Z,6.83
2023-04-09T08:48:55.845Z,6.70
2023-04-09T08:51:24.326Z,6.73
2023-04-09T08:54:04.002Z,7.37
2023-04-09T08:56:32.169Z,7.60
2023-04-09T08:58:58.995Z,7.17
2023-04-09T09:01:31.000Z,6.67
2023-04-09T09:03:59.951Z,6.53
2023-04-09T09:06:30.107Z,7.27
2023-04-09T09:09:02.814Z,6.27
2023-04-09T09:11:30.472Z,6.90
2023-04-09T09:14:01.058Z,6.27
2023-04-09T09:16:28.212Z,6.80
2023-04-09T09:18:58.285Z,5.50
2023-04-09T09:21:27.309Z,6.23
2023-04-09T09:23:54.354Z,6.13
2023-04-09T09:26:24.892Z,5.00
2023-04-09T09:28:52.571Z,4.60
2023-04-09T09:31:21.588Z,5.10
2023-04-09T09:33:50.518Z,5.47
2023-04-09T09:36:32.207Z,6.47
2023-04-09T09:39:03.470Z,5.50
2023-04-09T09:41:30.524Z,6.20
2023-04-09T09:43:57.378Z,6.80
2023-04-09T09:46:26.275Z,6.40
2023-04-09T09:48:54.189Z,5.73
2023-04-09T09:51:27.749Z,6.37
2023-04-09T09:53:59.944Z,6.37
2023-04-09T09:56:34.718Z,7.07
2023-04-09T09:59:21.957Z,5.70
2023-04-09T10:01:56.938Z,6.10
2023-04-09T10:04:26.806Z,5.97
2023-04-09T10:06:54.757Z,7.50
2023-04-09T10:09:23.319Z,5.60
2023-04-09T10:11:50.087Z,6.00
2023-04-09T10:14:18.738Z,6.03
2023-04-09T10:16:46.842Z,5.60
2023-04-09T10:19:15.299Z,6.50
2023-04-09T10:21:44.128Z,6.70
2023-04-09T10:24:11.783Z,6.60
2023-04-09T10:26:41.682Z,6.20
2023-04-09T10:29:16.600Z,5.90
2023-04-09T10:31:54.948Z,5.53
2023-04-09T10:34:24.694Z,6.40
2023-04-09T10:36:55.528Z,6.40
2023-04-09T10:39:33.496Z,6.73
2023-04-09T10:42:04.869Z,7.17
2023-04-09T10:44:32.212Z,6.70
2023-04-09T10:46:59.642Z,6.47
2023-04-09T10:49:27.612Z,7.70
2023-04-09T10:52:11.551Z,6.53
2023-04-09T10:54:43.849Z,6.87
2023-04-09T10:57:19.310Z,6.47
2023-04-09T10:59:48.634Z,7.40
2023-04-09T11:02:38.683Z,7.37
2023-04-09T11:05:05.835Z,6.83
2023-04-09T11:07:36.865Z,6.83
2023-04-09T11:10:03.809Z,6.80
2023-04-09T11:12:30.578Z,7.07
2023-04-09T11:14:57.261Z,7.37
2023-04-09T11:17:24.154Z,7.00
2023-04-09T11:19:50.959Z,7.97
2023-04-09T11:22:17.805Z,6.87
2023-04-09T11:24:46.678Z,7.43
2023-04-09T11:27:13.605Z,6.60
2023-04-09T11:29:40.693Z,6.27
2023-04-09T11:32:07.472Z,8.27
2023-04-09T11:34:34.188Z,6.33
2023-04-09T11:37:05.342Z,7.10
2023-04-09T11:39:32.029Z,7.40
2023-04-09T11:41:58.890Z,6.93
2023-04-09T11:44:25.676Z,6.40
2023-04-09T11:46:53.301Z,6.37
2023-04-09T11:49:20.217Z,7.07
2023-04-09T11:51:47.258Z,7.00
2023-04-09T11:54:14.347Z,7.00
2023-04-09T11:56:41.010Z,6.53
2023-04-09T11:59:07.779Z,6.07
2023-04-09T12:01:35.414Z,5.80
2023-04-09T12:04:02.499Z,6.30
2023-04-09T12:06:30.175Z,6.20
2023-04-09T12:08:58.433Z,7.43
2023-04-09T12:11:29.740Z,7.03
2023-04-09T12:14:05.728Z,6.57
2023-04-09T12:16:34.229Z,6.23
2023-04-09T12:19:08.404Z,5.57
2023-04-09T12:21:53.040Z,5.70
2023-04-09T12:24:21.730Z,6.23
2023-04-09T12:26:49.169Z,6.30
2023-04-09T12:29:18.350Z,6.20
2023-04-09T12:31:45.958Z,5.70
2023-04-09T12:34:13.308Z,5.47
2023-04-09T12:36:43.633Z,5.80
2023-04-09T12:39:10.580Z,4.80
2023-04-09T12:41:37.596Z,5.20
2023-04-09T12:44:05.179Z,5.37
2023-04-09T12:46:32.717Z,5.67
2023-04-09T12:48:59.596Z,4.80
2023-04-09T12:51:26.426Z,5.27
2023-04-09T12:53:53.311Z,5.00
2023-04-09T12:56:20.399Z,10.20
2023-04-09T12:58:47.061Z,5.20
2023-04-09T13:01:14.008Z,5.47
2023-04-09T13:03:41.438Z,5.47
2023-04-09T13:06:08.993Z,5.53
2023-04-09T13:08:35.928Z,5.37
2023-04-09T13:11:04.369Z,5.77
2023-04-09T13:13:31.532Z,5.60
2023-04-09T13:15:58.365Z,5.60
2023-04-09T13:18:25.146Z,5.07
2023-04-09T13:20:51.976Z,5.80
2023-04-09T13:23:18.732Z,5.83
2023-04-09T13:25:45.563Z,6.00
2023-04-09T13:28:12.354Z,5.80
2023-04-09T13:30:39.087Z,6.10
2023-04-09T13:33:05.883Z,7.57
2023-04-09T13:35:32.704Z,5.47
2023-04-09T13:37:59.523Z,5.23
2023-04-09T13:40:26.369Z,5.97
2023-04-09T13:42:53.043Z,6.20
2023-04-09T13:45:21.084Z,5.00
2023-04-09T13:47:47.835Z,5.20
2023-04-09T13:50:14.630Z,5.37
2023-04-09T13:52:41.416Z,5.20
2023-04-09T13:55:08.961Z,5.50
2023-04-09T13:57:35.784Z,5.17
2023-04-09T14:00:04.884Z,4.73
2023-04-09T14:02:32.307Z,4.60
2023-04-09T14:04:59.690Z,5.30
2023-04-09T14:07:26.468Z,4.87
2023-04-09T14:09:53.211Z,4.87
2023-04-09T14:12:20.291Z,5.07
2023-04-09T14:14:47.123Z,4.40
2023-04-09T14:17:13.849Z,5.37
2023-04-09T14:19:40.952Z,4.57
2023-04-09T14:22:08.979Z,5.60
2023-04-09T14:24:40.033Z,13.07
2023-04-09T14:27:07.823Z,5.27
2023-04-09T14:29:34.978Z,4.87
2023-04-09T14:32:01.742Z,4.50
2023-04-09T14:34:31.596Z,5.53
2023-04-09T14:36:58.405Z,6.20
2023-04-09T14:39:25.617Z,4.97
2023-04-09T14:41:52.605Z,5.60
2023-04-09T14:44:19.574Z,4.73
2023-04-09T14:46:46.283Z,4.77
2023-04-09T14:49:13.218Z,5.17
2023-04-09T14:51:39.986Z,4.83
2023-04-09T14:54:06.760Z,5.30
2023-04-09T14:56:33.636Z,5.50
2023-04-09T14:59:00.692Z,5.50
2023-04-09T15:01:28.240Z,5.43
2023-04-09T15:03:55.326Z,4.87
2023-04-09T15:06:22.452Z,5.07
2023-04-09T15:08:49.205Z,5.20
2023-04-09T15:11:20.035Z,4.90
2023-04-09T15:13:46.896Z,5.80
2023-04-09T15:16:28.342Z,4.90
2023-04-09T15:18:57.719Z,5.10
2023-04-09T15:21:24.469Z,5.00
2023-04-09T15:23:52.129Z,4.70
2023-04-09T15:26:19.717Z,5.10
2023-04-09T15:28:46.510Z,5.10
2023-04-09T15:31:13.857Z,4.10
2023-04-09T15:33:42.846Z,5.03
2023-04-09T15:36:10.028Z,4.30
2023-04-09T15:38:36.878Z,13.60
2023-04-09T15:41:04.800Z,4.53
2023-04-09T15:43:31.789Z,5.30
2023-04-09T15:45:58.519Z,6.00
2023-04-09T15:48:25.462Z,4.30
2023-04-09T15:50:52.274Z,4.43
2023-04-09T15:53:21.561Z,4.90
2023-04-09T15:55:49.363Z,3.77
2023-04-09T15:58:16.089Z,3.97
2023-04-09T16:00:43.165Z,13.20
2023-04-09T16:03:09.858Z,4.33
2023-04-09T16:05:36.805Z,4.13
2023-04-09T16:08:03.630Z,4.57
2023-04-09T16:10:30.992Z,4.87
2023-04-09T16:12:57.850Z,4.07
2023-04-09T16:15:24.770Z,4.00
2023-04-09T16:17:51.552Z,3.90
2023-04-09T16:20:18.323Z,3.40
2023-04-09T16:22:45.242Z,4.00
2023-04-09T16:25:11.920Z,4.20
2023-04-09T16:27:38.683Z,3.70
2023-04-09T16:30:05.973Z,3.77
2023-04-09T16:32:32.746Z,5.23
2023-04-09T16:35:00.847Z,8.70
2023-04-09T16:37:29.246Z,4.50
2023-04-09T16:39:57.196Z,4.30
2023-04-09T16:42:23.987Z,17.03
2023-04-09T16:44:50.701Z,9.13
2023-04-09T16:47:17.481Z,6.50
2023-04-09T16:49:44.167Z,3.60
2023-04-09T16:52:10.990Z,3.73
2023-04-09T16:54:37.713Z,3.50
2023-04-09T16:57:04.478Z,4.30
2023-04-09T16:59:31.342Z,3.17
2023-04-09T17:01:58.283Z,3.27
2023-04-09T17:04:25.536Z,3.17
2023-04-09T17:06:52.324Z,3.80
2023-04-09T17:09:19.282Z,3.60
2023-04-09T17:11:46.087Z,3.67
2023-04-09T17:14:13.176Z,4.80
2023-04-09T17:16:39.924Z,4.80
2023-04-09T17:19:06.717Z,6.40
2023-04-09T17:21:33.533Z,4.30
2023-04-09T17:24:02.214Z,4.07
2023-04-09T17:26:29.363Z,4.27
2023-04-09T17:28:56.198Z,4.90
2023-04-09T17:31:24.334Z,5.00
2023-04-09T17:33:52.308Z,4.73
2023-04-09T17:36:20.085Z,4.57
2023-04-09T17:38:49.008Z,5.20
2023-04-09T17:41:15.853Z,5.13
2023-04-09T17:43:42.650Z,5.17
2023-04-09T17:46:09.658Z,3.87
2023-04-09T17:48:37.198Z,4.83
2023-04-09T17:51:04.599Z,4.00
2023-04-09T17:53:31.385Z,4.23
2023-04-09T17:55:58.346Z,4.90
2023-04-09T17:58:25.432Z,3.90
2023-04-09T18:00:53.401Z,4.87
2023-04-09T18:03:21.376Z,4.23
2023-04-09T18:05:48.686Z,3.97
2023-04-09T18:08:15.708Z,4.43
2023-04-09T18:10:42.797Z,4.90
2023-04-09T18:13:09.745Z,16.23
2023-04-09T18:15:37.306Z,4.67
2023-04-09T18:18:04.208Z,4.50
2023-04-09T18:20:31.003Z,4.57
2023-04-09T18:22:57.732Z,4.13
2023-04-09T18:25:24.485Z,4.73
2023-04-09T18:27:51.257Z,4.70
2023-04-09T18:30:18.354Z,5.20
2023-04-09T18:32:45.564Z,4.50
2023-04-09T18:35:12.346Z,4.30
2023-04-09T18:37:39.056Z,3.93
2023-04-09T18:40:09.206Z,4.30
2023-04-09T18:42:36.290Z,4.50
2023-04-09T18:45:03.182Z,4.10
2023-04-09T18:47:29.904Z,4.50
2023-04-09T18:49:56.737Z,7.10
2023-04-09T18:52:23.470Z,7.90
2023-04-09T18:54:50.897Z,19.03
2023-04-09T18:57:17.574Z,4.40
2023-04-09T18:59:45.660Z,4.70
2023-04-09T19:02:12.555Z,4.67
2023-04-09T19:04:40.160Z,4.50
2023-04-09T19:07:07.357Z,4.60
2023-04-09T19:09:34.513Z,5.33
2023-04-09T19:12:02.014Z,4.50
2023-04-09T19:14:28.991Z,4.50
2023-04-09T19:16:57.087Z,5.23
2023-04-09T19:19:23.890Z,4.70
2023-04-09T19:21:50.704Z,4.20
2023-04-09T19:24:17.394Z,3.73
2023-04-09T19:26:44.141Z,3.73
2023-04-09T19:29:11.009Z,4.07
2023-04-09T19:31:37.870Z,4.50
2023-04-09T19:34:06.173Z,4.17
2023-04-09T19:36:34.008Z,4.13
2023-04-09T19:39:00.843Z,3.80
2023-04-09T19:41:27.679Z,3.40
2023-04-09T19:43:54.537Z,4.20
2023-04-09T19:46:21.517Z,3.73
2023-04-09T19:48:48.478Z,3.50
2023-04-09T19:51:20.082Z,31.47
2023-04-09T19:53:47.877Z,5.27
2023-04-09T19:56:14.821Z,4.43
2023-04-09T19:58:43.065Z,3.87
2023-04-09T20:01:09.957Z,3.70
2023-04-09T20:03:36.935Z,3.77
2023-04-09T20:06:10.542Z,3.30
2023-04-09T20:08:38.182Z,4.20
2023-04-09T20:11:05.470Z,4.63
2023-04-09T20:13:33.255Z,4.20
2023-04-09T20:16:00.617Z,5.43
2023-04-09T20:18:27.721Z,4.90
2023-04-09T20:20:54.537Z,4.87
2023-04-09T20:23:21.263Z,5.30
2023-04-09T20:25:53.698Z,5.37
2023-04-09T20:28:20.463Z,5.50
2023-04-09T20:30:47.191Z,4.70
2023-04-09T20:33:13.896Z,5.97
2023-04-09T20:35:40.828Z,5.07
2023-04-09T20:38:07.599Z,5.40
2023-04-09T20:40:37.491Z,6.13
2023-04-09T20:43:04.377Z,5.77
2023-04-09T20:45:31.283Z,4.80
2023-04-09T20:47:58.063Z,4.87
2023-04-09T20:50:24.890Z,5.20
2023-04-09T20:52:51.612Z,4.97
2023-04-09T20:55:18.465Z,5.27
2023-04-09T20:57:45.174Z,5.00
2023-04-09T21:00:12.553Z,6.40
2023-04-09T21:02:40.495Z,5.80
2023-04-09T21:05:19.451Z,5.53
2023-04-09T21:07:50.742Z,5.83
2023-04-09T21:10:17.739Z,5.63
2023-04-09T21:12:44.684Z,6.40
2023-04-09T21:15:11.624Z,5.30
2023-04-09T21:17:38.431Z,5.23
2023-04-09T21:20:05.762Z,5.77
2023-04-09T21:22:34.612Z,5.83
2023-04-09T21:25:03.067Z,6.50
2023-04-09T21:27:30.184Z,6.87
2023-04-09T21:29:57.569Z,6.47
2023-04-09T21:32:25.112Z,5.67
2023-04-09T21:34:51.933Z,5.97
2023-04-09T21:37:18.714Z,6.20
2023-04-09T21:39:45.437Z,5.80
2023-04-09T21:42:12.147Z,5.60
2023-04-09T21:44:39.069Z,6.00
2023-04-09T21:47:08.863Z,5.10
2023-04-09T21:49:40.398Z,4.90
2023-04-09T21:52:14.303Z,5.73
2023-04-09T21:54:42.456Z,6.83
2023-04-09T21:57:12.069Z,6.70
2023-04-09T21:59:40.996Z,7.67
2023-04-09T22:02:08.784Z,11.30
2023-04-09T22:04:35.709Z,5.90
2023-04-09T22:07:03.378Z,9.10
2023-04-09T22:09:31.302Z,8.00
2023-04-09T22:11:58.763Z,7.50
2023-04-09T22:14:29.241Z,6.87
2023-04-09T22:17:01.612Z,9.10
2023-04-09T22:19:29.873Z,8.93
2023-04-09T22:21:56.615Z,8.10
2023-04-09T22:24:27.215Z,7.23
2023-04-09T22:26:54.108Z,7.97
2023-04-09T22:29:20.829Z,8.47
2023-04-09T22:31:47.588Z,7.60
2023-04-09T22:34:20.654Z,6.80
2023-04-09T22:36:48.981Z,7.43
2023-04-09T22:39:15.978Z,6.83
2023-04-09T22:41:42.659Z,7.70
2023-04-09T22:44:09.700Z,7.13
2023-04-09T22:46:36.705Z,8.00
2023-04-09T22:49:05.623Z,7.50
2023-04-09T22:51:34.684Z,7.37
2023-04-09T22:54:02.143Z,7.50
2023-04-09T22:56:30.159Z,7.20
2023-04-09T22:58:56.933Z,7.00
2023-04-09T23:01:23.819Z,6.60
2023-04-09T23:03:51.019Z,7.53
2023-04-09T23:06:17.797Z,8.13
2023-04-09T23:08:44.795Z,7.30
2023-04-09T23:11:11.623Z,7.40
2023-04-09T23:13:38.786Z,7.90
2023-04-09T23:16:07.032Z,7.87
2023-04-09T23:18:35.511Z,7.83
2023-04-09T23:21:06.993Z,7.50
2023-04-09T23:23:34.755Z,9.83
2023-04-09T23:26:01.893Z,7.90
2023-04-09T23:28:29.159Z,8.73
2023-04-09T23:30:56.793Z,8.33
2023-04-09T23:33:24.015Z,7.60
2023-04-09T23:35:51.357Z,7.03
2023-04-09T23:38:18.298Z,7.60
2023-04-09T23:40:47.296Z,7.43
2023-04-09T23:43:14.148Z,8.17
2023-04-09T23:45:41.135Z,7.80
2023-04-09T23:48:08.948Z,9.00
2023-04-09T23:50:41.568Z,9.63
2023-04-09T23:53:08.984Z,8.23
2023-04-09T23:55:41.069Z,7.53
2023-04-09T23:58:08.521Z,8.43
